Time;durP1;ratioP1;P1;durP2;ratioP2;P2;SDS_P1;SDS_P2;PMS_P1;PMS_P2;Temp;Humidity;BMP_temperature;BMP_pressure;BME280_temperature;BME280_humidity;BME280_pressure;Samples;Min_cycle;Max_cycle;Signal;HPM_P1;HPM_P2
2022/12/21 00:01:44;;;;;;;0.00;0.00;;;6.40;94.80;;;;;;4951439;28;20484;-66
2022/12/21 00:04:10;;;;;;;0.13;0.13;;;6.30;95.00;;;;;;4952129;29;20066;-66
2022/12/21 00:06:37;;;;;;;0.00;0.00;;;6.20;94.90;;;;;;4951588;28;20496;-67
2022/12/21 00:09:06;;;;;;;0.00;0.00;;;6.10;94.90;;;;;;4951092;28;20459;-66
2022/12/21 00:11:33;;;;;;;0.00;0.00;;;6.10;95.10;;;;;;4951113;29;20039;-65
2022/12/21 00:14:00;;;;;;;0.00;0.00;;;6.10;95.00;;;;;;4951848;29;20131;-66
2022/12/21 00:16:29;;;;;;;0.10;0.10;;;6.10;95.10;;;;;;4950130;29;20106;-66
2022/12/21 00:18:59;;;;;;;0.00;0.00;;;6.10;95.10;;;;;;4951520;29;20095;-66
2022/12/21 00:21:28;;;;;;;0.00;0.00;;;6.00;95.00;;;;;;4951570;28;20082;-66
2022/12/21 00:23:59;;;;;;;0.00;0.00;;;6.00;95.10;;;;;;4951386;28;20062;-66
2022/12/21 00:26:30;;;;;;;0.10;0.10;;;6.00;95.00;;;;;;4950930;28;20051;-66
2022/12/21 00:28:56;;;;;;;0.00;0.00;;;5.90;95.00;;;;;;4933963;29;20047;-66
2022/12/21 00:31:26;;;;;;;0.10;0.10;;;5.80;94.90;;;;;;4950758;29;20124;-67
2022/12/21 00:33:53;;;;;;;0.00;0.00;;;5.70;94.70;;;;;;4951803;29;20138;-66
2022/12/21 00:36:20;;;;;;;0.10;0.10;;;5.70;94.90;;;;;;4951284;29;20452;-66
2022/12/21 00:38:49;;;;;;;0.10;0.10;;;5.70;94.70;;;;;;4950787;29;20523;-66
2022/12/21 00:41:18;;;;;;;0.10;0.10;;;5.70;94.90;;;;;;4951376;28;20086;-66
2022/12/21 00:43:43;;;;;;;0.00;0.00;;;5.70;94.90;;;;;;4951134;28;20039;-67
2022/12/21 00:46:16;;;;;;;0.00;0.00;;;5.70;94.90;;;;;;4951585;29;20134;-66
2022/12/21 00:48:42;;;;;;;0.00;0.00;;;5.80;94.90;;;;;;4949794;29;20043;-66
2022/12/21 00:51:11;;;;;;;0.00;0.00;;;5.70;94.90;;;;;;4950864;28;20463;-66
2022/12/21 00:53:37;;;;;;;0.10;0.10;;;5.80;94.80;;;;;;4950977;28;20666;-67
2022/12/21 00:56:05;;;;;;;0.00;0.00;;;5.70;94.70;;;;;;4950236;29;20039;-66
2022/12/21 00:58:32;;;;;;;0.00;0.00;;;5.60;94.60;;;;;;4950032;29;20129;-66
2022/12/21 01:01:03;;;;;;;0.00;0.00;;;5.60;94.60;;;;;;4951248;28;20039;-66
2022/12/21 01:03:28;;;;;;;0.00;0.00;;;5.60;94.60;;;;;;4950000;29;20054;-66
2022/12/21 01:05:54;;;;;;;0.00;0.00;;;5.60;94.60;;;;;;4950008;29;20416;-67
2022/12/21 01:08:22;;;;;;;0.00;0.00;;;5.50;94.60;;;;;;4950715;29;20035;-66
2022/12/21 01:10:48;;;;;;;0.00;0.00;;;5.60;94.50;;;;;;4948810;29;20043;-67
2022/12/21 01:13:14;;;;;;;0.03;0.03;;;5.60;94.50;;;;;;4951441;28;20039;-66
2022/12/21 01:15:41;;;;;;;0.00;0.00;;;5.50;94.40;;;;;;4953744;29;20065;-66
2022/12/21 01:18:07;;;;;;;0.00;0.00;;;5.50;94.40;;;;;;4954963;29;20456;-66
2022/12/21 01:20:33;;;;;;;0.00;0.00;;;5.40;94.40;;;;;;4954384;28;20515;-66
2022/12/21 01:22:59;;;;;;;0.00;0.00;;;5.40;94.40;;;;;;4954195;29;20044;-66
2022/12/21 01:25:24;;;;;;;0.00;0.00;;;5.40;94.40;;;;;;4953539;29;20079;-66
2022/12/21 01:27:50;;;;;;;0.00;0.00;;;5.40;94.30;;;;;;4954497;28;20035;-66
2022/12/21 01:30:16;;;;;;;0.00;0.00;;;5.40;94.30;;;;;;4954473;28;20039;-67
2022/12/21 01:32:42;;;;;;;0.00;0.00;;;5.30;94.30;;;;;;4950279;29;20496;-67
2022/12/21 01:35:07;;;;;;;0.00;0.00;;;5.30;94.30;;;;;;4954530;29;20050;-66
2022/12/21 01:37:33;;;;;;;0.00;0.00;;;5.20;94.20;;;;;;4954232;28;20042;-67
2022/12/21 01:39:59;;;;;;;0.00;0.00;;;5.10;94.30;;;;;;4953207;29;20051;-65
2022/12/21 01:42:24;;;;;;;0.50;0.50;;;5.20;94.30;;;;;;4953726;29;20047;-67
2022/12/21 01:45:05;;;;;;;0.00;0.00;;;5.20;94.30;;;;;;4954333;29;20047;-67
2022/12/21 01:47:58;;;;;;;0.08;0.08;;;5.20;94.30;;;;;;4954192;29;20044;-67
2022/12/21 01:51:01;;;;;;;0.00;0.00;;;5.20;94.20;;;;;;4951240;29;20047;-66
2022/12/21 01:53:30;;;;;;;0.10;0.10;;;5.20;94.30;;;;;;4925706;29;20059;-67
2022/12/21 01:55:59;;;;;;;0.00;0.00;;;5.20;94.30;;;;;;4952017;29;20050;-66
2022/12/21 01:58:28;;;;;;;0.00;0.00;;;5.20;94.30;;;;;;4954027;29;20102;-66
2022/12/21 02:00:57;;;;;;;0.00;0.00;;;5.20;94.30;;;;;;4954152;28;20043;-66
2022/12/21 02:03:27;;;;;;;0.00;0.00;;;5.30;94.30;;;;;;4953900;29;20098;-67
2022/12/21 02:06:07;;;;;;;0.00;0.00;;;5.20;94.20;;;;;;4954192;29;20158;-67
2022/12/21 02:08:34;;;;;;;0.00;0.00;;;5.20;94.30;;;;;;4953617;28;20496;-66
2022/12/21 02:11:01;;;;;;;0.00;0.00;;;5.20;94.30;;;;;;4953500;29;20113;-67
2022/12/21 02:13:27;;;;;;;0.00;0.00;;;5.20;94.30;;;;;;4953045;29;20043;-65
2022/12/21 02:15:58;;;;;;;0.00;0.00;;;5.20;94.30;;;;;;4953953;29;20039;-66
2022/12/21 02:18:45;;;;;;;0.10;0.10;;;5.20;94.20;;;;;;4953637;29;20141;-67
2022/12/21 02:21:20;;;;;;;0.08;0.08;;;5.20;94.20;;;;;;4953669;29;20045;-67
2022/12/21 02:24:30;;;;;;;0.00;0.00;;;5.20;94.20;;;;;;4953496;28;20086;-67
2022/12/21 02:27:13;;;;;;;0.00;0.00;;;5.20;94.10;;;;;;4923769;29;20052;-67
2022/12/21 02:29:57;;;;;;;;;;;5.10;94.10;;;;;;4944180;29;20047;-66
2022/12/21 02:32:28;;;;;;;0.00;0.00;;;5.10;94.10;;;;;;4953121;29;19923;-67
2022/12/21 02:35:10;;;;;;;0.00;0.00;;;5.10;94.20;;;;;;4952517;29;20043;-66
2022/12/21 02:37:46;;;;;;;0.08;0.08;;;5.10;94.20;;;;;;4953626;28;20047;-66
2022/12/21 02:40:29;;;;;;;0.00;0.00;;;5.10;94.20;;;;;;4936303;29;20052;-67
2022/12/21 02:46:09;;;;;;;0.08;0.08;;;5.10;94.10;;;;;;4952910;28;20437;-65
2022/12/21 02:48:53;;;;;;;0.00;0.00;;;5.10;94.10;;;;;;4952025;28;20099;-66
2022/12/21 02:51:30;;;;;;;0.00;0.00;;;5.10;94.00;;;;;;4953534;29;20058;-65
2022/12/21 02:53:56;;;;;;;0.00;0.00;;;5.10;94.00;;;;;;4951874;29;20039;-67
2022/12/21 02:56:22;;;;;;;0.00;0.00;;;5.00;94.00;;;;;;4953106;28;20567;-66
2022/12/21 02:58:47;;;;;;;0.10;0.10;;;5.00;94.00;;;;;;4952682;29;20431;-67
2022/12/21 03:01:43;;;;;;;0.00;0.00;;;5.00;94.00;;;;;;4952558;28;20043;-66
2022/12/21 03:04:31;;;;;;;0.00;0.00;;;4.90;93.80;;;;;;4949559;29;20043;-66
2022/12/21 03:07:23;;;;;;;0.00;0.00;;;4.80;93.80;;;;;;4952633;29;20423;-66
2022/12/21 03:09:57;;;;;;;0.00;0.00;;;4.80;93.80;;;;;;4952640;28;20047;-66
2022/12/21 03:12:28;;;;;;;0.00;0.00;;;4.70;93.80;;;;;;4952996;29;20058;-66
2022/12/21 03:15:31;;;;;;;0.00;0.00;;;4.70;93.80;;;;;;4952472;29;20071;-66
2022/12/21 03:18:08;;;;;;;0.00;0.00;;;4.70;93.80;;;;;;4952871;29;20070;-66
2022/12/21 03:20:52;;;;;;;0.10;0.10;;;4.60;93.70;;;;;;4952653;29;20042;-66
2022/12/21 03:23:29;;;;;;;0.00;0.00;;;4.70;93.70;;;;;;4951603;29;20098;-66
2022/12/21 03:26:11;;;;;;;0.00;0.00;;;4.60;93.70;;;;;;4952283;28;20043;-66
2022/12/21 03:28:40;;;;;;;0.00;0.00;;;4.60;93.70;;;;;;4952557;29;20075;-65
2022/12/21 03:31:12;;;;;;;0.00;0.00;;;4.60;93.70;;;;;;4951879;28;20091;-66
2022/12/21 03:33:43;;;;;;;0.00;0.00;;;4.60;93.70;;;;;;4951703;28;20093;-65
2022/12/21 03:36:20;;;;;;;0.00;0.00;;;4.60;93.60;;;;;;4951822;28;20075;-66
2022/12/21 03:38:59;;;;;;;0.00;0.00;;;4.60;93.70;;;;;;4952453;29;20552;-66
2022/12/21 03:41:38;;;;;;;0.00;0.00;;;4.60;93.70;;;;;;4952101;28;20500;-66
2022/12/21 03:44:08;;;;;;;0.00;0.00;;;4.60;93.60;;;;;;4951161;28;20055;-66
2022/12/21 03:46:40;;;;;;;0.00;0.00;;;4.60;93.60;;;;;;4951817;28;20047;-66
2022/12/21 03:49:51;;;;;;;0.00;0.00;;;4.60;93.60;;;;;;4952945;29;20094;-66
2022/12/21 03:52:24;;;;;;;0.00;0.00;;;4.60;93.60;;;;;;4946383;29;20082;-65
2022/12/21 03:54:53;;;;;;;0.00;0.00;;;4.60;93.60;;;;;;4947437;28;20043;-66
2022/12/21 03:57:20;;;;;;;0.00;0.00;;;4.50;93.60;;;;;;4942204;29;20035;-66
2022/12/21 03:59:49;;;;;;;0.00;0.00;;;4.60;93.60;;;;;;4952064;29;20403;-66
2022/12/21 04:02:46;;;;;;;0.00;0.00;;;4.60;93.70;;;;;;4940092;29;20040;-66
2022/12/21 04:05:37;;;;;;;0.00;0.00;;;4.60;93.70;;;;;;4951096;29;20072;-65
2022/12/21 04:08:03;;;;;;;0.00;0.00;;;4.60;93.60;;;;;;4951552;28;20504;-65
2022/12/21 04:10:29;;;;;;;0.00;0.00;;;4.60;93.60;;;;;;4950231;29;20035;-66
2022/12/21 04:12:54;;;;;;;0.00;0.00;;;4.60;93.60;;;;;;4951623;29;20054;-67
2022/12/21 04:15:23;;;;;;;0.00;0.00;;;4.60;93.60;;;;;;4950206;29;20042;-66
2022/12/21 04:17:50;;;;;;;0.08;0.08;;;4.70;93.60;;;;;;4950360;29;20126;-66
2022/12/21 04:20:25;;;;;;;0.00;0.00;;;4.60;93.50;;;;;;4951905;29;20113;-66
2022/12/21 04:28:29;;;;;;;0.00;0.00;;;4.60;93.50;;;;;;4950922;28;20055;-66
2022/12/21 04:30:56;;;;;;;0.00;0.00;;;4.60;93.60;;;;;;4950901;29;20578;-65
2022/12/21 04:33:23;;;;;;;0.00;0.00;;;4.70;93.50;;;;;;4950262;29;20090;-65
2022/12/21 04:38:39;;;;;;;0.00;0.00;;;4.60;93.40;;;;;;4951133;29;20055;-66
2022/12/21 04:41:05;;;;;;;0.00;0.00;;;4.60;93.40;;;;;;4951074;28;20043;-66
2022/12/21 04:43:31;;;;;;;0.00;0.00;;;4.70;93.40;;;;;;4951397;29;20051;-66
2022/12/21 04:46:02;;;;;;;0.00;0.00;;;4.60;93.30;;;;;;4950238;29;20051;-66
2022/12/21 04:48:28;;;;;;;0.00;0.00;;;4.60;93.30;;;;;;4950414;28;20464;-65
2022/12/21 04:50:54;;;;;;;0.10;0.10;;;4.60;93.30;;;;;;4950665;28;20035;-65
2022/12/21 04:53:20;;;;;;;0.10;0.10;;;4.60;93.30;;;;;;4950798;29;20039;-66
2022/12/21 04:55:45;;;;;;;0.00;0.00;;;4.60;93.30;;;;;;4950371;29;20051;-66
2022/12/21 04:58:11;;;;;;;0.00;0.00;;;4.60;93.30;;;;;;4950993;29;20130;-66
2022/12/21 05:00:37;;;;;;;0.00;0.00;;;4.60;93.30;;;;;;4950591;29;20559;-66
2022/12/21 05:03:03;;;;;;;0.00;0.00;;;4.60;93.30;;;;;;4951019;29;20046;-65
2022/12/21 05:05:29;;;;;;;0.00;0.00;;;4.70;93.30;;;;;;4949276;29;20393;-65
2022/12/21 05:07:54;;;;;;;0.10;0.10;;;4.70;93.30;;;;;;4950786;28;20039;-65
2022/12/21 05:10:20;;;;;;;0.00;0.00;;;4.70;93.30;;;;;;4950843;29;20043;-66
2022/12/21 05:12:46;;;;;;;0.00;0.00;;;4.70;93.40;;;;;;4950064;29;20114;-66
2022/12/21 05:15:13;;;;;;;0.00;0.00;;;4.70;93.40;;;;;;4950383;29;20404;-65
2022/12/21 05:17:39;;;;;;;0.00;0.00;;;4.80;93.40;;;;;;4933010;29;20067;-65
2022/12/21 05:20:05;;;;;;;0.00;0.00;;;4.80;93.30;;;;;;4950950;29;20049;-65
2022/12/21 05:22:31;;;;;;;0.10;0.10;;;4.70;93.30;;;;;;4949673;29;20051;-66
2022/12/21 05:24:57;;;;;;;0.00;0.00;;;4.80;93.40;;;;;;4950187;29;20039;-66
2022/12/21 05:27:23;;;;;;;0.00;0.00;;;4.70;93.30;;;;;;4951006;28;20055;-66
2022/12/21 05:29:48;;;;;;;0.00;0.00;;;4.70;93.30;;;;;;4950122;29;20559;-65
2022/12/21 05:32:14;;;;;;;0.00;0.00;;;4.80;93.40;;;;;;4950454;29;20146;-66
2022/12/21 05:34:39;;;;;;;0.00;0.00;;;4.80;93.40;;;;;;4943902;29;20047;-65
2022/12/21 05:37:05;;;;;;;0.00;0.00;;;4.80;93.40;;;;;;4950346;29;20067;-66
2022/12/21 05:39:31;;;;;;;0.00;0.00;;;4.90;93.40;;;;;;4950066;29;20044;-65
2022/12/21 05:41:57;;;;;;;0.08;0.08;;;4.80;93.40;;;;;;4950588;29;20050;-66
2022/12/21 05:44:22;;;;;;;0.00;0.00;;;4.80;93.30;;;;;;4932454;29;20432;-65
2022/12/21 05:46:48;;;;;;;0.00;0.00;;;4.90;93.50;;;;;;4950858;29;20059;-66
2022/12/21 05:49:13;;;;;;;0.00;0.00;;;4.90;93.50;;;;;;4950224;29;20118;-65
2022/12/21 05:51:39;;;;;;;0.00;0.00;;;4.90;93.50;;;;;;4950503;29;20115;-66
2022/12/21 05:54:04;;;;;;;0.00;0.00;;;4.90;93.60;;;;;;4950416;29;20532;-66
2022/12/21 05:56:30;;;;;;;0.00;0.00;;;4.90;93.60;;;;;;4950183;29;20047;-66
2022/12/21 05:58:55;;;;;;;0.00;0.00;;;4.90;93.60;;;;;;4950276;28;20117;-65
2022/12/21 06:01:21;;;;;;;0.00;0.00;;;5.00;93.70;;;;;;4953270;28;20045;-65
2022/12/21 06:03:48;;;;;;;0.00;0.00;;;5.00;93.70;;;;;;4953662;29;20094;-66
2022/12/21 06:06:15;;;;;;;0.00;0.00;;;5.10;93.70;;;;;;4953698;28;20520;-66
2022/12/21 06:08:41;;;;;;;0.00;0.00;;;5.10;93.70;;;;;;4953151;28;20062;-68
2022/12/21 06:11:12;;;;;;;0.00;0.00;;;5.10;93.70;;;;;;4947989;29;20039;-66
2022/12/21 06:13:38;;;;;;;0.00;0.00;;;5.10;93.80;;;;;;4953111;28;20408;-66
2022/12/21 06:16:12;;;;;;;0.00;0.00;;;5.10;93.80;;;;;;4953768;28;20807;-67
2022/12/21 06:18:39;;;;;;;0.00;0.00;;;5.10;93.80;;;;;;4952552;28;20543;-65
2022/12/21 06:21:06;;;;;;;0.00;0.00;;;5.10;93.80;;;;;;4954060;28;20047;-69
2022/12/21 06:23:32;;;;;;;0.00;0.00;;;5.10;93.80;;;;;;4968877;28;20043;-68
2022/12/21 06:26:00;;;;;;;0.05;0.05;;;5.20;93.80;;;;;;4952340;28;20069;-65
2022/12/21 06:28:26;;;;;;;0.00;0.00;;;5.10;93.80;;;;;;4953288;29;20739;-66
2022/12/21 06:30:53;;;;;;;0.00;0.00;;;5.20;93.80;;;;;;4952651;29;20130;-66
2022/12/21 06:33:20;;;;;;;0.00;0.00;;;5.20;93.90;;;;;;4953843;29;20416;-66
2022/12/21 06:35:46;;;;;;;0.00;0.00;;;5.20;93.80;;;;;;4953114;29;20047;-67
2022/12/21 06:38:12;;;;;;;0.00;0.00;;;5.20;93.80;;;;;;4947493;29;20488;-66
2022/12/21 06:40:38;;;;;;;0.00;0.00;;;5.20;93.80;;;;;;4952817;28;20078;-66
2022/12/21 06:43:03;;;;;;;0.00;0.00;;;5.20;93.80;;;;;;4953237;28;20051;-66
2022/12/21 06:45:29;;;;;;;0.00;0.00;;;5.20;93.80;;;;;;4953104;29;20051;-66
2022/12/21 06:47:54;;;;;;;0.00;0.00;;;5.20;93.80;;;;;;4952237;28;20051;-65
2022/12/21 06:50:21;;;;;;;0.00;0.00;;;5.10;93.80;;;;;;4952269;29;20444;-67
2022/12/21 06:52:48;;;;;;;0.00;0.00;;;5.20;93.80;;;;;;4952392;28;20142;-65
2022/12/21 06:55:14;;;;;;;1.10;0.85;;;5.20;93.90;;;;;;4952343;29;20043;-65
2022/12/21 06:57:39;;;;;;;0.00;0.00;;;5.20;93.90;;;;;;4952770;28;20047;-65
2022/12/21 07:00:06;;;;;;;0.00;0.00;;;5.20;93.90;;;;;;4951730;29;20036;-65
2022/12/21 07:02:31;;;;;;;0.00;0.00;;;5.20;93.90;;;;;;4950975;28;20187;-66
2022/12/21 07:04:57;;;;;;;0.03;0.03;;;5.20;93.90;;;;;;4953098;28;20138;-66
2022/12/21 07:07:23;;;;;;;0.10;0.10;;;5.20;93.90;;;;;;4951442;28;20093;-66
2022/12/21 07:09:48;;;;;;;0.00;0.00;;;5.30;94.00;;;;;;4951929;28;20067;-64
2022/12/21 07:12:14;;;;;;;0.00;0.00;;;5.20;93.90;;;;;;4949427;28;20039;-65
2022/12/21 07:14:40;;;;;;;0.00;0.00;;;5.30;93.90;;;;;;4951927;28;20467;-66
2022/12/21 07:17:05;;;;;;;0.00;0.00;;;5.30;94.00;;;;;;4952051;29;20058;-66
2022/12/21 07:19:31;;;;;;;0.00;0.00;;;5.30;94.00;;;;;;4951576;29;20046;-65
2022/12/21 07:21:56;;;;;;;0.00;0.00;;;5.30;94.00;;;;;;4951790;29;20455;-67
2022/12/21 07:24:22;;;;;;;0.10;0.10;;;5.40;94.00;;;;;;4965921;28;20047;-66
2022/12/21 07:26:48;;;;;;;0.30;0.30;;;5.50;94.10;;;;;;4951866;28;20492;-67
2022/12/21 07:29:14;;;;;;;0.00;0.00;;;5.50;94.10;;;;;;4951242;29;20055;-66
2022/12/21 07:31:40;;;;;;;0.00;0.00;;;5.50;94.10;;;;;;4951782;29;20043;-66
2022/12/21 07:34:05;;;;;;;0.00;0.00;;;5.50;94.10;;;;;;4951619;28;20059;-66
2022/12/21 07:36:31;;;;;;;0.10;0.10;;;5.60;94.10;;;;;;4951240;29;20093;-66
2022/12/21 07:38:56;;;;;;;0.00;0.00;;;5.60;94.10;;;;;;4951991;28;20408;-66
2022/12/21 07:41:22;;;;;;;0.00;0.00;;;5.60;94.10;;;;;;4941943;28;20042;-67
2022/12/21 07:43:49;;;;;;;0.00;0.00;;;5.60;94.10;;;;;;4943091;29;20048;-66
2022/12/21 07:46:16;;;;;;;0.20;0.20;;;5.60;94.10;;;;;;4944330;29;20102;-66
2022/12/21 07:48:42;;;;;;;0.00;0.00;;;5.60;94.10;;;;;;4948155;29;20110;-66
2022/12/21 07:51:08;;;;;;;0.00;0.00;;;5.60;94.10;;;;;;4955661;28;20892;-66
2022/12/21 07:53:34;;;;;;;0.10;0.10;;;5.60;94.10;;;;;;4947640;29;20047;-66
2022/12/21 07:56:12;;;;;;;0.00;0.00;;;5.60;94.10;;;;;;4946946;29;20094;-66
2022/12/21 07:58:38;;;;;;;0.00;0.00;;;5.60;94.10;;;;;;4948655;28;20067;-65
2022/12/21 08:01:06;;;;;;;0.10;0.10;;;5.60;94.10;;;;;;4945753;29;20078;-66
2022/12/21 08:03:34;;;;;;;0.00;0.00;;;5.60;94.00;;;;;;4947011;29;20085;-66
2022/12/21 08:06:03;;;;;;;0.00;0.00;;;5.50;94.00;;;;;;4946531;29;20476;-65
2022/12/21 08:08:30;;;;;;;0.00;0.00;;;5.50;94.00;;;;;;4946983;28;20082;-66
2022/12/21 08:10:55;;;;;;;0.00;0.00;;;5.50;94.00;;;;;;4930935;29;20055;-65
2022/12/21 08:13:21;;;;;;;0.03;0.03;;;5.60;94.00;;;;;;4945134;28;20460;-66
2022/12/21 08:15:47;;;;;;;0.20;0.20;;;5.60;94.00;;;;;;4949863;29;20480;-65
2022/12/21 08:18:13;;;;;;;0.20;0.20;;;5.60;94.00;;;;;;4950219;28;20419;-66
2022/12/21 08:20:43;;;;;;;0.00;0.00;;;5.60;94.10;;;;;;4950523;29;20046;-66
2022/12/21 08:23:09;;;;;;;0.10;0.10;;;5.60;94.10;;;;;;4950036;28;20043;-66
2022/12/21 08:25:35;;;;;;;0.00;0.00;;;5.60;94.10;;;;;;4949406;28;20055;-67
2022/12/21 08:28:01;;;;;;;0.00;0.00;;;5.70;94.00;;;;;;4951934;28;20131;-66
2022/12/21 08:30:27;;;;;;;0.00;0.00;;;5.70;94.10;;;;;;4947971;28;20046;-66
2022/12/21 08:32:53;;;;;;;0.00;0.00;;;5.70;94.10;;;;;;4950096;28;20128;-66
2022/12/21 08:35:19;;;;;;;0.00;0.00;;;5.70;94.10;;;;;;4950158;29;20043;-67
2022/12/21 08:37:45;;;;;;;0.00;0.00;;;5.70;94.10;;;;;;4950226;28;20575;-67
2022/12/21 08:40:11;;;;;;;0.30;0.30;;;5.70;94.10;;;;;;4950696;29;20079;-67
2022/12/21 08:42:37;;;;;;;0.00;0.00;;;5.70;94.00;;;;;;4949565;28;20112;-67
2022/12/21 08:45:03;;;;;;;0.00;0.00;;;5.70;94.00;;;;;;4950224;29;20138;-67
2022/12/21 08:47:29;;;;;;;0.00;0.00;;;5.70;94.00;;;;;;4950188;29;20058;-66
2022/12/21 08:49:54;;;;;;;0.00;0.00;;;5.70;93.90;;;;;;4949688;28;20043;-67
2022/12/21 08:52:20;;;;;;;0.00;0.00;;;5.70;93.90;;;;;;4949667;29;20130;-67
2022/12/21 08:54:46;;;;;;;0.00;0.00;;;5.70;94.00;;;;;;4950441;28;20190;-67
2022/12/21 08:57:11;;;;;;;0.00;0.00;;;5.70;94.00;;;;;;4949359;29;20043;-67
2022/12/21 08:59:37;;;;;;;0.00;0.00;;;5.70;94.00;;;;;;4950237;28;20047;-67
2022/12/21 09:02:03;;;;;;;0.00;0.00;;;5.70;94.00;;;;;;4933172;29;20047;-67
2022/12/21 09:04:28;;;;;;;0.05;0.05;;;5.70;94.00;;;;;;4949700;28;20032;-67
2022/12/21 09:06:54;;;;;;;0.00;0.00;;;5.70;94.00;;;;;;4949568;28;20043;-67
2022/12/21 09:09:19;;;;;;;0.00;0.00;;;5.80;94.10;;;;;;4949935;29;20078;-67
2022/12/21 09:11:45;;;;;;;0.00;0.00;;;5.80;94.10;;;;;;4949968;29;20493;-67
2022/12/21 09:14:11;;;;;;;0.00;0.00;;;5.80;94.20;;;;;;4948942;29;20148;-67
2022/12/21 09:16:36;;;;;;;0.10;0.10;;;5.80;94.30;;;;;;4950113;28;20460;-67
2022/12/21 09:19:02;;;;;;;0.00;0.00;;;5.90;94.30;;;;;;4950205;28;20047;-68
2022/12/21 09:21:27;;;;;;;0.00;0.00;;;5.90;94.30;;;;;;4950106;29;20167;-67
2022/12/21 09:23:53;;;;;;;1.63;1.52;;;5.90;94.30;;;;;;4950333;29;20476;-67
2022/12/21 09:26:19;;;;;;;0.00;0.00;;;6.00;94.40;;;;;;4949884;29;20197;-67
2022/12/21 09:28:44;;;;;;;0.00;0.00;;;6.00;94.40;;;;;;4948729;28;20123;-72
2022/12/21 09:31:13;;;;;;;0.20;0.20;;;6.00;94.50;;;;;;4947935;29;20047;-68
2022/12/21 09:33:40;;;;;;;0.00;0.00;;;6.00;94.50;;;;;;4950193;28;20409;-71
2022/12/21 09:36:07;;;;;;;0.00;0.00;;;6.00;94.60;;;;;;4952665;29;20090;-73
2022/12/21 09:38:33;;;;;;;0.30;0.30;;;6.10;94.60;;;;;;4967863;28;20039;-68
2022/12/21 09:41:06;;;;;;;0.00;0.00;;;6.20;94.70;;;;;;4953592;28;20047;-69
2022/12/21 09:44:00;;;;;;;0.00;0.00;;;6.30;94.60;;;;;;4953064;29;20046;-68
2022/12/21 09:46:27;;;;;;;0.03;0.03;;;6.20;94.60;;;;;;4929891;28;20110;-68
2022/12/21 09:48:58;;;;;;;0.10;0.10;;;6.20;94.70;;;;;;4956411;28;20121;-68
2022/12/21 09:51:29;;;;;;;0.00;0.00;;;6.30;94.70;;;;;;4959385;28;20504;-69
2022/12/21 09:54:17;;;;;;;0.00;0.00;;;6.30;94.80;;;;;;4952740;28;20051;-69
2022/12/21 09:56:50;;;;;;;0.00;0.00;;;6.40;94.80;;;;;;4952817;29;20061;-69
2022/12/21 09:59:19;;;;;;;0.00;0.00;;;6.40;94.90;;;;;;4951912;29;20043;-69
2022/12/21 10:02:03;;;;;;;0.00;0.00;;;6.40;94.90;;;;;;4951152;29;20043;-69
2022/12/21 10:04:56;;;;;;;0.05;0.05;;;6.40;94.90;;;;;;4952407;28;20115;-69
2022/12/21 10:07:45;;;;;;;0.00;0.00;;;6.40;94.80;;;;;;4952007;28;20058;-69
2022/12/21 10:10:25;;;;;;;0.57;0.57;;;6.40;94.70;;;;;;4935829;29;20062;-68
2022/12/21 10:12:58;;;;;;;0.03;0.03;;;6.30;94.60;;;;;;4952839;29;20488;-68
2022/12/21 10:15:39;;;;;;;0.00;0.00;;;6.30;94.70;;;;;;4953481;28;20401;-69
2022/12/21 10:18:26;;;;;;;0.00;0.00;;;6.30;94.70;;;;;;4952278;28;20090;-71
2022/12/21 10:21:20;;;;;;;0.00;0.00;;;6.40;95.30;;;;;;4953838;28;20423;-68
2022/12/21 10:23:49;;;;;;;0.00;0.00;;;6.50;94.80;;;;;;4938536;29;20536;-68
2022/12/21 10:26:19;;;;;;;0.00;0.00;;;6.50;94.80;;;;;;4957160;29;20042;-68
2022/12/21 10:28:53;;;;;;;0.00;0.00;;;6.50;94.70;;;;;;4937731;29;20474;-67
2022/12/21 19:40:35;;;;;;;0.05;0.05;;;7.80;93.40;;;;;;5007176;28;20049;-65
2022/12/21 19:43:01;;;;;;;0.00;0.00;;;7.80;93.50;;;;;;4999933;28;20510;-67
2022/12/21 19:45:27;;;;;;;0.00;0.00;;;7.80;93.50;;;;;;5008027;28;20044;-67
2022/12/21 19:47:52;;;;;;;0.10;0.10;;;7.80;93.50;;;;;;4996983;28;20069;-66
2022/12/21 19:50:20;;;;;;;0.00;0.00;;;7.80;93.50;;;;;;5013238;28;20041;-65
2022/12/21 19:52:47;;;;;;;0.32;0.32;;;7.80;93.50;;;;;;5014457;28;20417;-65
2022/12/21 19:55:17;;;;;;;0.00;0.00;;;7.80;93.50;;;;;;5025241;28;20041;-66
2022/12/21 19:57:47;;;;;;;0.00;0.00;;;7.80;93.50;;;;;;5014983;28;20054;-65
2022/12/21 20:00:18;;;;;;;0.00;0.00;;;7.70;93.50;;;;;;5014859;28;20683;-65
2022/12/21 20:02:47;;;;;;;0.00;0.00;;;7.70;93.50;;;;;;5012995;28;20076;-66
2022/12/21 20:05:25;;;;;;;0.20;0.20;;;7.80;93.60;;;;;;5014838;28;20080;-66
2022/12/21 20:07:51;;;;;;;0.15;0.15;;;7.70;93.60;;;;;;5009427;28;20057;-66
2022/12/21 20:10:17;;;;;;;0.00;0.00;;;7.70;93.70;;;;;;5028543;28;20409;-66
2022/12/21 20:12:45;;;;;;;0.00;0.00;;;7.70;93.70;;;;;;5029005;28;20092;-65
2022/12/21 20:15:31;;;;;;;9.82;1.30;;;7.80;93.80;;;;;;5016878;28;20050;-66
2022/12/21 20:17:57;;;;;;;0.00;0.00;;;7.80;93.90;;;;;;5035809;28;20095;-66
2022/12/21 20:20:23;;;;;;;0.00;0.00;;;7.80;94.00;;;;;;5021158;28;20081;-66
2022/12/21 20:22:53;;;;;;;0.10;0.10;;;7.80;94.00;;;;;;5021799;28;20100;-66
2022/12/21 20:25:19;;;;;;;0.52;0.52;;;7.80;94.10;;;;;;5025722;28;20045;-66
2022/12/21 20:27:48;;;;;;;0.05;0.05;;;7.80;94.10;;;;;;5019195;28;20517;-66
2022/12/21 20:30:26;;;;;;;0.20;0.20;;;7.80;94.10;;;;;;5011360;28;20038;-65
2022/12/21 20:33:04;;;;;;;0.28;0.28;;;7.80;94.10;;;;;;5019989;28;20059;-65
2022/12/21 20:35:32;;;;;;;0.20;0.20;;;7.80;94.10;;;;;;5009442;28;20042;-66
2022/12/21 20:38:10;;;;;;;1.52;1.27;;;7.80;94.20;;;;;;5022102;28;20057;-66
2022/12/21 20:40:36;;;;;;;0.15;0.15;;;7.80;94.20;;;;;;5033724;28;20603;-66
2022/12/21 20:45:46;;;;;;;0.20;0.20;;;7.80;94.40;;;;;;5046388;28;20132;-66
2022/12/21 20:48:17;;;;;;;0.00;0.00;;;7.90;94.40;;;;;;5048860;28;20136;-66
2022/12/21 20:50:44;;;;;;;0.15;0.15;;;7.90;94.50;;;;;;5027654;28;20041;-65
2022/12/21 20:53:16;;;;;;;0.10;0.10;;;7.90;94.50;;;;;;5027548;28;20060;-66
2022/12/21 20:58:27;;;;;;;0.00;0.00;;;7.90;94.60;;;;;;5027277;28;20080;-66
2022/12/21 21:00:53;;;;;;;0.00;0.00;;;7.90;94.50;;;;;;5028819;28;20052;-66
2022/12/21 21:03:26;;;;;;;0.28;0.28;;;7.90;94.60;;;;;;5028994;28;20050;-66
2022/12/21 21:05:53;;;;;;;0.03;0.03;;;7.90;94.60;;;;;;5025733;28;20041;-66
2022/12/21 21:08:19;;;;;;;3.53;2.00;;;7.90;94.60;;;;;;5029027;28;20413;-66
2022/12/21 21:10:45;;;;;;;0.20;0.20;;;7.90;94.60;;;;;;4994386;28;20038;-66
2022/12/21 21:13:11;;;;;;;0.00;0.00;;;8.00;94.80;;;;;;5028428;28;20057;-66
2022/12/21 21:15:39;;;;;;;1.77;0.75;;;7.90;94.70;;;;;;5021297;28;20448;-66
2022/12/21 21:18:06;;;;;;;0.00;0.00;;;7.90;94.80;;;;;;5021878;28;20049;-66
2022/12/21 21:23:25;;;;;;;0.00;0.00;;;8.00;94.90;;;;;;4970437;28;20084;-66
2022/12/21 21:25:50;;;;;;;0.00;0.00;;;8.00;94.80;;;;;;5027486;28;20751;-66
2022/12/21 21:28:20;;;;;;;0.03;0.03;;;8.00;94.90;;;;;;5027318;28;20120;-65
2022/12/21 21:30:48;;;;;;;0.10;0.10;;;8.00;94.90;;;;;;5025995;28;20049;-66
2022/12/21 21:33:14;;;;;;;1.45;0.52;;;8.00;94.90;;;;;;5031532;28;20622;-65
2022/12/21 21:35:42;;;;;;;0.00;0.00;;;8.00;94.90;;;;;;5031004;28;20041;-65
2022/12/21 21:44:01;;;;;;;0.00;0.00;;;8.10;94.90;;;;;;5032721;28;19925;-65
2022/12/21 21:46:28;;;;;;;0.00;0.00;;;8.10;94.90;;;;;;5039483;28;20041;-65
2022/12/21 21:48:53;;;;;;;0.00;0.00;;;8.10;94.90;;;;;;5030474;28;20045;-65
2022/12/21 21:51:19;;;;;;;0.10;0.10;;;8.10;94.80;;;;;;5032626;28;20099;-64
2022/12/21 21:53:44;;;;;;;0.00;0.00;;;8.00;94.80;;;;;;5048153;28;20041;-65
2022/12/21 21:56:36;;;;;;;0.10;0.10;;;8.00;94.70;;;;;;5041106;28;20056;-65
2022/12/21 21:59:02;;;;;;;0.45;0.45;;;8.00;94.80;;;;;;5031587;28;20037;-65
2022/12/21 22:01:28;;;;;;;0.00;0.00;;;8.00;94.70;;;;;;5030789;28;20052;-65
2022/12/21 22:03:53;;;;;;;0.05;0.05;;;8.00;94.70;;;;;;5047446;28;20041;-65
2022/12/21 22:06:21;;;;;;;0.03;0.03;;;8.00;94.80;;;;;;5052382;28;20053;-65
2022/12/21 22:08:47;;;;;;;0.00;0.00;;;8.00;94.80;;;;;;5046563;28;20034;-65
2022/12/21 22:11:18;;;;;;;2.05;1.00;;;8.00;94.80;;;;;;5031660;28;20048;-65
2022/12/21 22:13:44;;;;;;;;;;;8.00;94.80;;;;;;5032526;28;20041;-65
2022/12/21 22:16:10;;;;;;;0.00;0.00;;;8.00;95.00;;;;;;5033930;28;20011;-65
2022/12/21 22:18:36;;;;;;;0.00;0.00;;;8.00;95.00;;;;;;5031861;28;20090;-66
2022/12/21 22:32:33;;;;;;;0.10;0.10;;;8.10;95.00;;;;;;5031033;28;20057;-65
2022/12/21 22:43:39;;;;;;;0.00;0.00;;;8.10;95.10;;;;;;5030926;28;20053;-65
2022/12/21 22:46:05;;;;;;;0.10;0.10;;;8.20;95.20;;;;;;5031207;28;20045;-65
2022/12/21 22:48:30;;;;;;;0.10;0.10;;;8.10;95.20;;;;;;5031515;28;20033;-65
2022/12/21 22:51:02;;;;;;;0.20;0.20;;;8.10;95.30;;;;;;5033107;28;20136;-65
2022/12/21 22:53:42;;;;;;;0.00;0.00;;;8.10;95.30;;;;;;5047290;28;20067;-65
2022/12/21 22:56:12;;;;;;;0.00;0.00;;;8.20;95.30;;;;;;5031511;28;20121;-65
2022/12/21 22:58:40;;;;;;;0.10;0.10;;;8.20;95.30;;;;;;5031117;28;20080;-65
2022/12/21 23:01:14;;;;;;;0.90;0.90;;;8.20;95.30;;;;;;5031471;28;20164;-65
2022/12/21 23:03:40;;;;;;;0.00;0.00;;;8.10;95.30;;;;;;5031333;28;20120;-65
2022/12/21 23:06:17;;;;;;;0.00;0.00;;;8.10;95.30;;;;;;5031213;28;20045;-65